Time;durP1;ratioP1;P1;durP2;ratioP2;P2;SDS_P1;SDS_P2;PMS_P1;PMS_P2;Temp;Humidity;BMP_temperature;BMP_pressure;BME280_temperature;BME280_humidity;BME280_pressure;Samples;Min_cycle;Max_cycle;Signal;HPM_P1;HPM_P2
2021/09/05 00:01:13;;;;;;;11.93;6.70;;;;;;;14.12;80.98;102145.44;10147861;28;20495;-69
2021/09/05 00:06:10;;;;;;;12.15;7.15;;;;;;;14.10;80.86;102138.28;10139247;28;20057;-68
2021/09/05 00:11:07;;;;;;;11.77;7.25;;;;;;;14.08;81.20;102139.72;10146385;28;20046;-69
2021/09/05 00:16:03;;;;;;;13.00;7.18;;;;;;;13.97;81.53;102141.88;10143381;28;20145;-68
2021/09/05 00:21:00;;;;;;;15.73;7.50;;;;;;;13.96;81.15;102143.00;10138428;28;20054;-68
2021/09/05 00:25:56;;;;;;;11.05;6.55;;;;;;;13.89;81.40;102137.09;10138915;28;20046;-68
2021/09/05 00:30:53;;;;;;;14.30;7.32;;;;;;;13.88;81.80;102140.97;10129512;28;20092;-68
2021/09/05 00:35:49;;;;;;;13.07;7.82;;;;;;;13.81;81.52;102151.56;10141394;28;20046;-69
2021/09/05 00:40:46;;;;;;;13.55;7.47;;;;;;;13.74;81.48;102156.63;10140260;28;20616;-70
2021/09/05 00:45:42;;;;;;;14.40;6.60;;;;;;;13.68;81.65;102153.97;10139802;28;20074;-70
2021/09/05 00:50:40;;;;;;;9.70;6.35;;;;;;;13.66;81.59;102161.69;10147391;28;20046;-70
2021/09/05 00:55:38;;;;;;;12.10;6.38;;;;;;;13.64;81.75;102163.13;10143202;28;20828;-70
2021/09/05 01:00:35;;;;;;;11.98;6.60;;;;;;;13.59;81.74;102171.47;10141028;28;20088;-69
2021/09/05 01:05:32;;;;;;;9.75;5.97;;;;;;;13.52;81.62;102174.63;10139492;28;20109;-67
2021/09/05 01:10:28;;;;;;;15.23;6.30;;;;;;;13.47;81.78;102180.19;10136791;28;20461;-68
2021/09/05 01:15:25;;;;;;;12.85;6.22;;;;;;;13.43;81.95;102179.16;10142948;28;20074;-68
2021/09/05 01:20:21;;;;;;;11.95;6.43;;;;;;;13.38;82.01;102176.50;10134526;28;20509;-68
2021/09/05 01:25:18;;;;;;;12.80;7.00;;;;;;;13.38;81.91;102182.00;10136104;28;20078;-68
2021/09/05 01:30:14;;;;;;;15.80;6.07;;;;;;;13.34;82.33;102183.72;10139387;28;20046;-65
2021/09/05 01:35:11;;;;;;;12.60;6.22;;;;;;;13.25;82.01;102181.66;10131751;28;20105;-68
2021/09/05 01:40:08;;;;;;;13.18;6.25;;;;;;;13.22;82.33;102184.97;10145763;28;20077;-66
2021/09/05 01:45:05;;;;;;;10.20;5.82;;;;;;;13.17;82.02;102181.50;10149111;28;20082;-69
2021/09/05 01:50:02;;;;;;;11.82;5.88;;;;;;;13.16;82.19;102191.69;10137587;28;20447;-67
2021/09/05 01:54:59;;;;;;;10.13;5.45;;;;;;;13.11;82.07;102197.25;10137489;28;20081;-69
2021/09/05 01:59:56;;;;;;;12.32;5.70;;;;;;;13.08;82.31;102195.09;10137044;28;20407;-69
2021/09/05 02:04:53;;;;;;;12.40;6.43;;;;;;;13.03;82.52;102197.94;10137604;28;20042;-69
2021/09/05 02:09:49;;;;;;;11.07;5.50;;;;;;;12.99;82.49;102191.38;10134513;28;20563;-69
2021/09/05 02:14:45;;;;;;;10.98;5.43;;;;;;;12.92;82.20;102202.75;10143211;28;20038;-68
2021/09/05 02:19:42;;;;;;;13.43;6.45;;;;;;;12.88;82.51;102207.22;10140204;28;20069;-70
2021/09/05 02:24:38;;;;;;;11.82;5.93;;;;;;;12.84;82.25;102204.25;10142544;28;20038;-67
2021/09/05 02:29:35;;;;;;;8.82;5.32;;;;;;;12.79;82.24;102206.25;10138488;28;20137;-68
2021/09/05 02:34:32;;;;;;;13.38;5.80;;;;;;;12.74;82.00;102207.16;10149588;28;20050;-68
2021/09/05 02:39:28;;;;;;;10.25;5.22;;;;;;;12.70;81.83;102211.59;10145731;28;20524;-67
2021/09/05 02:44:24;;;;;;;14.23;6.72;;;;;;;12.66;81.96;102209.72;10152404;28;20042;-67
2021/09/05 02:49:21;;;;;;;11.10;5.85;;;;;;;12.62;81.71;102209.50;10147169;28;20733;-67
2021/09/05 02:54:17;;;;;;;10.60;5.35;;;;;;;12.57;81.75;102207.63;10143439;28;20478;-68
2021/09/05 02:59:16;;;;;;;12.25;6.13;;;;;;;12.56;81.87;102210.69;10146266;28;20531;-67
2021/09/05 03:04:12;;;;;;;12.02;5.78;;;;;;;12.53;81.75;102205.78;10139346;28;20058;-67
2021/09/05 03:09:08;;;;;;;14.60;5.90;;;;;;;12.50;81.62;102209.09;10143970;28;20092;-64
2021/09/05 03:14:05;;;;;;;10.60;5.95;;;;;;;12.45;81.57;102214.66;10146949;28;20054;-67
2021/09/05 03:19:01;;;;;;;14.35;5.90;;;;;;;12.38;81.49;102210.34;10139179;28;20072;-70
2021/09/05 03:23:58;;;;;;;10.25;5.88;;;;;;;12.35;81.90;102205.47;10140867;28;20054;-67
2021/09/05 03:28:55;;;;;;;9.48;5.05;;;;;;;12.35;81.85;102204.66;10137476;28;20074;-70
2021/09/05 03:33:52;;;;;;;14.23;5.65;;;;;;;12.35;82.15;102213.69;10148329;28;20085;-70
2021/09/05 03:38:48;;;;;;;13.07;5.65;;;;;;;12.34;82.24;102203.81;10125150;28;20628;-70
2021/09/05 03:43:45;;;;;;;11.23;5.00;;;;;;;12.29;82.24;102200.31;10149400;28;20073;-68
2021/09/05 03:48:41;;;;;;;11.40;5.15;;;;;;;12.25;82.06;102205.56;10150378;28;20552;-69
2021/09/05 03:53:38;;;;;;;10.70;5.30;;;;;;;12.22;82.67;102208.91;10144725;28;20074;-67
2021/09/05 03:58:34;;;;;;;10.20;4.30;;;;;;;12.21;82.65;102201.81;10134621;28;20046;-69
2021/09/05 04:03:31;;;;;;;8.10;4.65;;;;;;;12.20;82.51;102202.91;10126130;28;20050;-69
2021/09/05 04:08:38;;;;;;;9.15;4.28;;;;;;;12.18;82.42;102199.63;10139153;28;20062;-67
2021/09/05 04:13:35;;;;;;;9.95;4.80;;;;;;;12.20;82.62;102202.91;10140961;28;20058;-66
2021/09/05 04:18:31;;;;;;;9.90;4.55;;;;;;;12.17;82.66;102203.47;10135487;28;20050;-68
2021/09/05 04:23:28;;;;;;;10.15;4.80;;;;;;;12.13;82.38;102205.16;10138149;28;20042;-68
2021/09/05 04:28:24;;;;;;;9.95;4.60;;;;;;;12.06;82.59;102204.72;10133235;28;20423;-68
2021/09/05 04:33:21;;;;;;;9.45;4.88;;;;;;;12.04;82.52;102204.19;10130589;28;20051;-71
2021/09/05 04:38:17;;;;;;;11.23;4.70;;;;;;;11.99;82.53;102214.09;10134586;28;20050;-70
2021/09/05 04:43:14;;;;;;;6.35;3.83;;;;;;;11.96;82.85;102203.72;10136410;28;20054;-69
2021/09/05 04:48:11;;;;;;;12.38;4.60;;;;;;;11.94;82.60;102211.41;10143151;28;20512;-70
2021/09/05 04:53:07;;;;;;;12.77;4.88;;;;;;;11.97;82.56;102208.09;10144343;28;20050;-70
2021/09/05 04:58:04;;;;;;;12.95;4.68;;;;;;;11.94;82.55;102219.63;10138203;28;20616;-69
2021/09/05 05:03:00;;;;;;;10.65;4.03;;;;;;;11.96;82.58;102228.38;10136208;28;20046;-70
2021/09/05 05:07:57;;;;;;;13.00;3.72;;;;;;;11.95;82.60;102224.03;10133362;28;20051;-70
2021/09/05 05:12:53;;;;;;;9.48;4.65;;;;;;;11.96;82.62;102235.78;10132882;28;20096;-68
2021/09/05 05:17:50;;;;;;;9.65;3.65;;;;;;;11.99;82.68;102236.00;10140206;28;20508;-69
2021/09/05 05:22:46;;;;;;;7.15;3.35;;;;;;;12.02;82.71;102234.63;10143694;28;20074;-70
2021/09/05 05:27:43;;;;;;;7.65;4.03;;;;;;;12.02;82.75;102225.59;10135826;28;20046;-70
2021/09/05 05:32:40;;;;;;;8.20;3.55;;;;;;;12.03;82.99;102228.03;10138641;28;20073;-70
2021/09/05 05:37:36;;;;;;;10.70;4.25;;;;;;;12.07;83.13;102244.72;10129887;28;20109;-68
2021/09/05 05:42:34;;;;;;;8.30;3.95;;;;;;;12.07;83.31;102241.97;10139979;28;20390;-70
2021/09/05 05:47:30;;;;;;;9.43;3.90;;;;;;;12.07;83.42;102240.06;10135783;28;20078;-69
2021/09/05 05:52:27;;;;;;;12.50;4.60;;;;;;;12.10;83.63;102246.91;10143322;28;20042;-69
2021/09/05 05:57:24;;;;;;;7.18;3.58;;;;;;;12.13;83.72;102251.78;10142087;28;20093;-67
2021/09/05 06:02:21;;;;;;;8.55;3.88;;;;;;;12.16;83.85;102245.72;10149635;28;20100;-66
2021/09/05 06:07:18;;;;;;;8.68;3.00;;;;;;;12.20;84.07;102260.47;10139499;28;20078;-68
2021/09/05 06:12:14;;;;;;;9.10;3.55;;;;;;;12.27;84.00;102262.88;10132496;28;20058;-67
2021/09/05 06:17:11;;;;;;;8.75;3.58;;;;;;;12.30;84.25;102273.25;10141013;28;20097;-66
2021/09/05 06:22:07;;;;;;;8.50;3.90;;;;;;;12.31;84.63;102270.22;10140220;28;20038;-66
2021/09/05 06:27:04;;;;;;;6.72;3.40;;;;;;;12.38;84.36;102276.19;10137039;28;20239;-67
2021/09/05 06:32:01;;;;;;;8.65;3.50;;;;;;;12.46;84.41;102268.41;10139501;28;20089;-70
2021/09/05 06:36:57;;;;;;;12.57;4.43;;;;;;;12.43;84.15;102280.78;10143931;28;20050;-70
2021/09/05 06:41:53;;;;;;;8.45;3.60;;;;;;;12.59;84.10;102281.44;10151992;28;20471;-69
2021/09/05 06:46:51;;;;;;;8.65;3.65;;;;;;;12.58;83.73;102274.31;10148403;28;20174;-70
2021/09/05 06:51:47;;;;;;;7.65;3.35;;;;;;;12.67;83.61;102278.03;10152053;28;20500;-71
2021/09/05 06:56:44;;;;;;;7.82;3.13;;;;;;;12.77;83.28;102283.38;10152620;28;21476;-69
2021/09/05 07:01:41;;;;;;;6.13;3.00;;;;;;;12.72;82.73;102280.72;10147257;28;20035;-70
2021/09/05 07:06:38;;;;;;;6.85;3.20;;;;;;;12.83;82.79;102282.22;10147953;28;20046;-68
2021/09/05 07:11:34;;;;;;;7.22;2.95;;;;;;;12.91;82.21;102282.66;10145484;28;20145;-69
2021/09/05 07:16:31;;;;;;;6.80;2.47;;;;;;;12.98;81.99;102272.13;10147048;28;20062;-69
2021/09/05 07:21:27;;;;;;;12.02;3.53;;;;;;;13.02;82.06;102274.00;10146156;28;20442;-68
2021/09/05 07:26:24;;;;;;;7.05;2.70;;;;;;;13.15;81.62;102283.41;10144437;28;20074;-69
2021/09/05 07:31:20;;;;;;;6.55;2.65;;;;;;;13.28;81.35;102281.88;10145994;28;20074;-69
2021/09/05 07:36:17;;;;;;;6.88;2.58;;;;;;;13.41;81.09;102291.28;10145233;28;20054;-70
2021/09/05 07:41:13;;;;;;;7.95;3.33;;;;;;;13.49;80.39;102293.38;10146025;28;20145;-71
2021/09/05 07:46:10;;;;;;;8.70;2.55;;;;;;;13.58;80.64;102288.03;10145658;28;20568;-70
2021/09/05 07:51:07;;;;;;;5.25;2.65;;;;;;;13.71;79.86;102294.66;10146173;28;20121;-72
2021/09/05 07:56:04;;;;;;;7.05;2.67;;;;;;;13.82;79.32;102296.13;10146498;28;20479;-68
2021/09/05 08:01:00;;;;;;;6.20;2.63;;;;;;;13.87;78.63;102293.28;10143992;28;20046;-67
2021/09/05 08:05:58;;;;;;;8.00;2.85;;;;;;;14.00;77.75;102303.50;10145697;28;20444;-66
2021/09/05 08:10:54;;;;;;;6.18;2.95;;;;;;;14.12;77.31;102296.72;10144977;28;20632;-67
2021/09/05 08:15:51;;;;;;;6.72;2.80;;;;;;;14.22;76.81;102299.25;10145059;28;20046;-66
2021/09/05 08:20:47;;;;;;;6.88;2.47;;;;;;;14.28;75.45;102303.56;10146972;28;20419;-69
2021/09/05 08:25:44;;;;;;;8.30;2.75;;;;;;;14.48;76.06;102305.06;10144162;28;20092;-71
2021/09/05 08:30:43;;;;;;;8.18;2.80;;;;;;;14.57;75.21;102300.50;10146415;28;20076;-70
2021/09/05 08:35:39;;;;;;;7.43;2.97;;;;;;;14.69;74.76;102303.59;10143421;28;20056;-69
2021/09/05 08:40:54;;;;;;;6.82;2.60;;;;;;;14.85;74.60;102306.00;10146074;28;20468;-70
2021/09/05 08:45:51;;;;;;;6.25;2.67;;;;;;;14.98;74.39;102309.88;10137908;28;20114;-66
2021/09/05 08:50:50;;;;;;;11.02;5.47;;;;;;;15.10;74.11;102312.91;10137732;28;20046;-67
2021/09/05 08:55:48;;;;;;;7.07;2.70;;;;;;;15.20;73.08;102317.34;10142919;28;20050;-67
2021/09/05 09:00:45;;;;;;;5.75;2.28;;;;;;;15.30;72.48;102330.91;10130774;28;20578;-68
2021/09/05 09:05:42;;;;;;;7.72;2.38;;;;;;;15.41;72.74;102328.72;10141133;28;20129;-67
2021/09/05 09:10:47;;;;;;;5.15;2.22;;;;;;;15.49;71.56;102325.25;10140642;28;20066;-65
2021/09/05 09:15:46;;;;;;;9.88;3.40;;;;;;;15.68;71.75;102327.81;10139383;28;20058;-64
2021/09/05 09:20:43;;;;;;;6.10;3.05;;;;;;;15.83;71.38;102323.88;10141793;28;20045;-67
2021/09/05 09:25:57;;;;;;;8.98;3.00;;;;;;;16.03;70.59;102323.34;10140669;28;20065;-64
2021/09/05 09:30:57;;;;;;;8.10;4.05;;;;;;;16.04;70.21;102319.47;10142159;28;20039;-66
2021/09/05 09:35:57;;;;;;;8.00;3.17;;;;;;;16.05;71.20;102323.84;10148482;28;20420;-67
2021/09/05 09:41:08;;;;;;;6.55;3.03;;;;;;;16.02;70.48;102321.75;10149237;28;20074;-67
2021/09/05 09:46:13;;;;;;;6.05;2.90;;;;;;;16.13;69.64;102314.81;10146035;28;20100;-67
2021/09/05 09:51:11;;;;;;;8.35;3.28;;;;;;;16.24;68.87;102311.78;10153016;28;20147;-67
2021/09/05 09:56:16;;;;;;;7.60;3.30;;;;;;;16.36;68.39;102311.97;10148350;28;20477;-67
2021/09/05 10:01:21;;;;;;;8.55;3.65;;;;;;;16.45;67.93;102307.31;10147748;28;20042;-67
2021/09/05 10:06:22;;;;;;;7.93;3.35;;;;;;;16.64;68.24;102315.34;10143487;28;20719;-67
2021/09/05 10:11:20;;;;;;;7.32;3.28;;;;;;;16.77;67.71;102308.88;10124609;28;20142;-67
2021/09/05 10:16:16;;;;;;;9.00;3.25;;;;;;;17.13;67.20;102309.78;10144654;28;20047;-66
2021/09/05 10:21:15;;;;;;;7.28;4.18;;;;;;;17.68;65.85;102306.34;10143602;28;20097;-67
2021/09/05 10:26:14;;;;;;;4.47;2.10;;;;;;;18.21;64.11;102299.56;10145492;28;20127;-67
2021/09/05 10:31:11;;;;;;;6.85;3.30;;;;;;;19.17;61.99;102306.53;10149401;28;20073;-67
2021/09/05 10:36:12;;;;;;;6.60;3.60;;;;;;;19.99;61.95;102297.63;10151757;28;20056;-66
2021/09/05 10:41:24;;;;;;;8.27;3.95;;;;;;;19.84;59.42;102297.16;10151325;28;20108;-66
2021/09/05 10:46:48;;;;;;;8.75;3.70;;;;;;;20.43;57.39;102292.38;10148235;28;20070;-67
2021/09/05 10:51:48;;;;;;;6.85;3.83;;;;;;;21.36;57.66;102289.66;10145683;28;20093;-66
2021/09/05 10:56:45;;;;;;;10.40;4.75;;;;;;;22.26;55.69;102290.13;10148445;28;20720;-67
2021/09/05 11:01:47;;;;;;;8.57;3.63;;;;;;;22.47;55.63;102290.66;10149631;28;20098;-67
2021/09/05 11:06:56;;;;;;;7.95;3.72;;;;;;;21.48;55.29;102295.19;10130270;28;20056;-67
2021/09/05 11:12:00;;;;;;;8.65;4.13;;;;;;;21.40;54.27;102287.81;10149009;28;20034;-68
2021/09/05 11:16:56;;;;;;;8.52;4.78;;;;;;;20.93;56.62;102288.38;10150161;28;20042;-66
2021/09/05 11:21:53;;;;;;;6.65;3.97;;;;;;;20.90;54.01;102291.88;10146880;28;20704;-65
2021/09/05 11:27:08;;;;;;;9.18;3.83;;;;;;;20.72;53.97;102283.78;10149865;28;20405;-67
2021/09/05 11:32:06;;;;;;;8.45;4.25;;;;;;;20.92;53.42;102284.00;10146204;28;20497;-67
2021/09/05 11:37:04;;;;;;;9.40;4.07;;;;;;;20.99;51.63;102289.78;10146200;28;20449;-67
2021/09/05 11:42:02;;;;;;;9.80;4.13;;;;;;;20.88;53.34;102283.88;10130380;28;20042;-66
2021/09/05 11:47:07;;;;;;;7.15;3.20;;;;;;;20.97;54.39;102283.75;10149496;28;20116;-67
2021/09/05 11:52:04;;;;;;;7.00;3.13;;;;;;;21.08;53.19;102287.66;10144870;28;20039;-68
2021/09/05 11:57:00;;;;;;;8.32;3.47;;;;;;;21.23;52.30;102289.72;10143887;28;20043;-67
2021/09/05 12:01:57;;;;;;;10.00;3.53;;;;;;;21.25;49.37;102282.97;10146918;28;20038;-67
2021/09/05 12:06:54;;;;;;;7.10;3.30;;;;;;;21.40;52.79;102282.25;10145902;28;20046;-67
2021/09/05 12:11:57;;;;;;;8.45;4.10;;;;;;;21.41;52.66;102279.09;10146961;28;20046;-68
2021/09/05 12:16:54;;;;;;;8.68;4.07;;;;;;;21.67;50.91;102283.38;10144459;28;20058;-67
2021/09/05 12:21:58;;;;;;;5.97;3.45;;;;;;;22.54;51.01;102286.41;10144376;28;20042;-65
2021/09/05 12:27:07;;;;;;;5.93;3.40;;;;;;;23.68;46.48;102280.47;10147991;28;20053;-67
2021/09/05 12:32:03;;;;;;;8.57;3.75;;;;;;;23.80;45.02;102273.13;10145387;28;20108;-66
2021/09/05 12:37:09;;;;;;;6.15;3.20;;;;;;;24.04;45.79;102278.34;10145286;28;20042;-67
2021/09/05 12:42:08;;;;;;;5.50;3.42;;;;;;;24.31;45.73;102272.81;10146037;28;20062;-68
2021/09/05 12:47:04;;;;;;;6.25;2.70;;;;;;;23.89;44.37;102279.28;10145001;28;20054;-67
2021/09/05 12:52:01;;;;;;;6.75;3.47;;;;;;;24.19;44.78;102264.63;10149691;28;20038;-67
2021/09/05 12:56:57;;;;;;;7.05;3.35;;;;;;;24.68;41.80;102266.59;10145867;28;20084;-68
2021/09/05 13:01:54;;;;;;;6.65;3.50;;;;;;;24.10;42.66;102257.28;10145722;28;20493;-68
2021/09/05 13:06:51;;;;;;;9.25;4.05;;;;;;;23.39;43.29;102255.97;10143833;28;20046;-67
2021/09/05 13:11:48;;;;;;;8.73;3.28;;;;;;;23.14;46.42;102261.88;10145652;28;20462;-66
2021/09/05 13:16:45;;;;;;;7.30;3.25;;;;;;;23.29;48.79;102252.59;10144125;28;20094;-66
2021/09/05 13:21:41;;;;;;;7.43;3.40;;;;;;;23.47;45.92;102246.56;10145027;28;20420;-67
2021/09/05 13:26:37;;;;;;;9.45;3.50;;;;;;;23.29;50.81;102240.66;10143406;28;20596;-64
2021/09/05 13:31:41;;;;;;;8.05;4.40;;;;;;;23.73;50.01;102243.88;10139854;28;20488;-67
2021/09/05 13:36:37;;;;;;;6.32;3.80;;;;;;;24.04;49.51;102230.03;10145619;28;20042;-66
2021/09/05 13:41:34;;;;;;;6.47;3.78;;;;;;;24.17;47.13;102227.88;10144936;28;20047;-66
2021/09/05 13:46:30;;;;;;;8.07;3.80;;;;;;;23.75;48.21;102223.19;10145427;28;20097;-66
2021/09/05 13:51:27;;;;;;;7.93;4.25;;;;;;;23.14;46.40;102217.25;10142555;28;20420;-66
2021/09/05 13:56:23;;;;;;;9.93;4.43;;;;;;;22.82;50.13;102224.91;10146148;28;20069;-65
2021/09/05 14:01:20;;;;;;;9.40;4.22;;;;;;;22.52;53.05;102207.94;10140467;28;20059;-67
2021/09/05 14:06:16;;;;;;;6.90;4.07;;;;;;;22.28;51.75;102209.78;10144515;28;20058;-67
2021/09/05 14:11:13;;;;;;;10.70;4.95;;;;;;;21.94;52.12;102211.31;10141862;28;20070;-66
2021/09/05 14:16:10;;;;;;;9.32;4.60;;;;;;;21.82;53.68;102215.00;10146768;28;20054;-67
2021/09/05 14:21:07;;;;;;;10.02;4.03;;;;;;;22.04;54.68;102217.13;10146645;28;20129;-64
2021/09/05 14:26:11;;;;;;;9.65;5.35;;;;;;;22.08;52.44;102210.84;10143810;28;20042;-66
2021/09/05 14:31:15;;;;;;;10.63;5.32;;;;;;;21.98;52.62;102218.59;10140573;28;20066;-65
2021/09/05 14:57:12;;;;;;;16.63;8.75;;;;;;;21.60;53.90;102220.00;10145218;28;20133;-67
2021/09/05 15:02:13;;;;;;;15.23;9.02;;;;;;;21.37;55.09;102221.72;10133752;28;20555;-67
2021/09/05 15:12:26;;;;;;;13.73;8.82;;;;;;;21.49;53.89;102216.13;10147697;28;20651;-67
2021/09/05 15:17:22;;;;;;;15.15;9.18;;;;;;;21.74;53.32;102213.19;10144728;28;20081;-68
2021/09/05 15:22:25;;;;;;;16.23;10.35;;;;;;;21.85;53.68;102214.25;10144123;28;20501;-68
2021/09/05 15:27:24;;;;;;;;;;;;;;;21.77;53.73;102212.47;10143794;28;20495;-66
2021/09/05 15:32:37;;;;;;;15.18;9.80;;;;;;;21.72;55.67;102216.34;10136554;28;19930;-68
2021/09/05 15:53:35;;;;;;;21.20;12.82;;;;;;;21.59;55.17;102207.25;10151278;28;20054;-67
2021/09/05 15:58:35;;;;;;;18.40;13.75;;;;;;;21.32;55.62;102210.84;10147729;28;20078;-67
2021/09/05 16:19:21;;;;;;;21.92;14.23;;;;;;;20.51;58.41;102208.06;10142743;28;20089;-67
2021/09/05 16:24:17;;;;;;;20.35;14.57;;;;;;;20.52;58.54;102199.41;10140496;28;20101;-67
2021/09/05 16:29:24;;;;;;;23.45;13.48;;;;;;;20.43;60.82;102206.25;10134816;28;20070;-67
2021/09/05 16:34:31;;;;;;;24.98;14.38;;;;;;;20.52;59.51;102216.06;10131853;28;20828;-67
2021/09/05 16:44:43;;;;;;;21.83;15.98;;;;;;;20.36;59.07;102218.75;10146863;28;20133;-67
2021/09/05 16:49:40;;;;;;;21.92;15.45;;;;;;;20.17;59.77;102215.75;10145121;28;20104;-68
2021/09/05 16:54:36;;;;;;;25.08;16.60;;;;;;;20.12;59.92;102224.28;10144977;28;20038;-67
2021/09/05 16:59:33;;;;;;;27.85;17.50;;;;;;;19.95;60.53;102223.34;10139410;28;20487;-68
2021/09/05 17:04:31;;;;;;;22.13;16.13;;;;;;;19.93;60.49;102234.00;10140166;28;20126;-68
2021/09/05 17:09:28;;;;;;;22.92;15.95;;;;;;;19.64;60.81;102232.19;10143249;28;20081;-67
2021/09/05 17:14:24;;;;;;;25.05;16.95;;;;;;;19.61;62.14;102234.84;10141485;28;21670;-68
2021/09/05 17:19:21;;;;;;;24.65;16.70;;;;;;;19.46;62.50;102237.09;10140726;28;20464;-65
2021/09/05 17:24:17;;;;;;;23.08;16.05;;;;;;;19.34;62.95;102250.94;10140841;28;20076;-67
2021/09/05 17:29:14;;;;;;;26.42;17.35;;;;;;;19.19;63.35;102244.03;10142657;28;20070;-66
2021/09/05 17:34:10;;;;;;;25.00;16.98;;;;;;;19.07;63.85;102250.34;10138668;28;20043;-66
2021/09/05 17:39:07;;;;;;;25.65;17.27;;;;;;;18.94;63.88;102254.22;10140107;28;20500;-68
2021/09/05 17:44:03;;;;;;;24.63;15.90;;;;;;;18.83;64.46;102250.22;10136724;28;20081;-68
2021/09/05 17:49:00;;;;;;;22.98;15.27;;;;;;;18.68;64.72;102252.41;10138959;28;20042;-69
2021/09/05 17:53:56;;;;;;;25.15;15.10;;;;;;;18.55;65.22;102259.00;10143529;28;20100;-68
2021/09/05 17:58:53;;;;;;;22.98;15.57;;;;;;;18.41;65.70;102269.53;10125511;28;20097;-68
2021/09/05 18:03:50;;;;;;;26.08;15.38;;;;;;;18.27;65.90;102270.56;10135636;28;20512;-69
2021/09/05 18:08:47;;;;;;;22.05;14.75;;;;;;;18.16;66.10;102277.59;10143536;28;20046;-68
2021/09/05 18:13:45;;;;;;;21.38;14.32;;;;;;;18.07;66.77;102282.34;10134597;28;20039;-67
2021/09/05 18:18:42;;;;;;;20.75;14.85;;;;;;;17.98;66.53;102284.34;10146947;28;20082;-68
2021/09/05 18:23:38;;;;;;;25.13;15.05;;;;;;;17.88;66.88;102286.31;10143900;28;20088;-69
2021/09/05 18:28:35;;;;;;;22.73;14.63;;;;;;;17.77;67.10;102296.06;10134212;28;20491;-68
2021/09/05 18:33:31;;;;;;;24.75;15.50;;;;;;;17.68;67.29;102292.50;10136376;28;20046;-68
2021/09/05 18:38:29;;;;;;;24.20;15.55;;;;;;;17.61;67.63;102297.72;10141081;28;20137;-68
2021/09/05 18:43:26;;;;;;;21.73;15.00;;;;;;;17.51;68.23;102303.59;10144874;28;20078;-68
2021/09/05 18:48:23;;;;;;;23.25;16.45;;;;;;;17.42;68.48;102307.19;10139115;28;20472;-67
2021/09/05 18:53:19;;;;;;;23.90;16.90;;;;;;;17.32;68.75;102296.47;10147357;28;20069;-68
2021/09/05 18:58:16;;;;;;;26.77;16.70;;;;;;;17.23;69.23;102298.41;10142894;28;20046;-68
2021/09/05 19:03:12;;;;;;;26.02;17.48;;;;;;;17.15;69.39;102304.72;10137063;28;20473;-68
2021/09/05 19:08:09;;;;;;;27.77;18.17;;;;;;;17.08;69.66;102301.63;10135207;28;20049;-68
2021/09/05 19:13:05;;;;;;;23.23;16.65;;;;;;;16.98;69.83;102303.56;10142088;28;20133;-68
2021/09/05 19:18:02;;;;;;;25.90;16.95;;;;;;;16.91;70.08;102302.44;10137468;28;20097;-68
2021/09/05 19:22:58;;;;;;;25.63;17.48;;;;;;;16.80;70.42;102301.91;10126471;28;20042;-69
2021/09/05 19:27:55;;;;;;;23.15;16.02;;;;;;;16.73;70.42;102316.19;10130985;28;20121;-68
2021/09/05 19:32:52;;;;;;;25.92;17.63;;;;;;;16.65;70.66;102310.66;10121317;28;20047;-68
2021/09/05 19:37:48;;;;;;;27.30;17.42;;;;;;;16.54;70.98;102316.44;10132344;28;20508;-69
2021/09/05 19:42:44;;;;;;;26.70;17.95;;;;;;;16.44;71.27;102305.69;10137908;28;20046;-68
2021/09/05 19:47:41;;;;;;;28.60;17.70;;;;;;;16.39;71.53;102311.38;10141357;28;20085;-67
2021/09/05 19:52:38;;;;;;;28.48;18.42;;;;;;;16.33;71.44;102309.88;10125036;28;20093;-66
2021/09/05 19:57:36;;;;;;;28.42;18.45;;;;;;;16.24;71.62;102311.78;10128990;28;20137;-69
2021/09/05 20:02:32;;;;;;;28.42;18.10;;;;;;;16.17;71.81;102312.22;10118183;28;20045;-69
2021/09/05 20:07:29;;;;;;;26.90;18.05;;;;;;;16.10;71.92;102317.38;10130457;28;20062;-69
2021/09/05 20:12:26;;;;;;;29.17;18.20;;;;;;;16.02;72.31;102316.22;10136036;28;20046;-70
2021/09/05 20:17:22;;;;;;;24.98;16.73;;;;;;;15.93;72.36;102312.59;10137608;28;20047;-71
2021/09/05 20:22:19;;;;;;;25.38;17.30;;;;;;;15.86;72.56;102315.00;10118456;28;20058;-71
2021/09/05 20:27:16;;;;;;;29.08;17.27;;;;;;;15.80;72.79;102313.47;10132431;28;20070;-69
2021/09/05 20:32:13;;;;;;;25.42;18.00;;;;;;;15.73;73.36;102320.28;10133605;28;20129;-69
2021/09/05 20:37:10;;;;;;;29.10;18.85;;;;;;;15.66;73.49;102319.84;10141935;28;20046;-70
2021/09/05 20:42:06;;;;;;;25.95;18.83;;;;;;;15.59;73.68;102311.19;10146132;28;20042;-69
2021/09/05 20:47:03;;;;;;;28.95;19.25;;;;;;;15.52;74.04;102302.53;10145001;28;20137;-71
2021/09/05 20:52:02;;;;;;;33.88;20.05;;;;;;;15.46;73.76;102303.81;10144051;28;20039;-71
2021/09/05 20:57:00;;;;;;;29.52;18.92;;;;;;;15.40;74.33;102294.03;10142147;28;20133;-70
2021/09/05 21:01:57;;;;;;;29.38;18.98;;;;;;;15.31;74.31;102303.03;10135173;28;20095;-70
2021/09/05 21:06:55;;;;;;;28.60;18.30;;;;;;;15.23;74.63;102301.03;10103751;28;1054328;-71
2021/09/05 21:11:52;;;;;;;33.65;20.15;;;;;;;15.18;74.76;102295.66;10133876;28;20046;-71
2021/09/05 21:16:48;;;;;;;30.70;18.83;;;;;;;15.13;74.94;102306.75;10129157;28;20062;-70
2021/09/05 21:21:45;;;;;;;30.20;19.25;;;;;;;15.07;75.26;102306.06;10135956;28;20051;-70
2021/09/05 21:26:41;;;;;;;34.13;18.75;;;;;;;15.01;75.38;102306.50;10130340;28;20081;-70
2021/09/05 21:31:38;;;;;;;26.83;17.98;;;;;;;14.93;75.56;102311.59;10146234;28;20038;-68
2021/09/05 21:36:34;;;;;;;30.10;19.10;;;;;;;14.85;75.85;102306.84;10140333;28;20058;-68
2021/09/05 21:41:31;;;;;;;30.23;19.75;;;;;;;14.79;76.06;102308.06;10138034;28;20050;-68
2021/09/05 21:46:27;;;;;;;28.52;18.40;;;;;;;14.73;76.33;102298.25;10139465;28;20050;-70
2021/09/05 21:51:24;;;;;;;28.75;18.25;;;;;;;14.69;76.41;102306.34;10118298;28;20054;-71
2021/09/05 21:56:20;;;;;;;28.90;19.23;;;;;;;14.65;76.18;102312.75;10137456;28;20066;-68
2021/09/05 22:01:17;;;;;;;27.60;18.45;;;;;;;14.64;76.51;102311.13;10138822;28;20055;-69
2021/09/05 22:06:14;;;;;;;26.23;17.70;;;;;;;14.60;76.23;102318.38;10135079;28;20039;-69
2021/09/05 22:11:11;;;;;;;28.13;18.30;;;;;;;14.55;76.35;102312.97;10133557;28;20567;-70
2021/09/05 22:16:07;;;;;;;26.50;18.08;;;;;;;14.44;76.73;102313.13;10134957;28;20077;-71
2021/09/05 22:21:04;;;;;;;27.25;18.50;;;;;;;14.40;76.38;102323.13;10134796;28;20140;-69
2021/09/05 22:26:01;;;;;;;26.75;17.00;;;;;;;14.34;76.58;102318.81;10127238;28;20053;-70
2021/09/05 22:30:58;;;;;;;26.83;17.42;;;;;;;14.27;76.89;102327.50;10131018;28;20121;-70
2021/09/05 22:35:55;;;;;;;26.70;16.35;;;;;;;14.25;77.09;102328.91;10136581;28;20770;-70
2021/09/05 22:40:52;;;;;;;28.63;18.55;;;;;;;14.21;77.12;102330.66;10145980;28;20080;-69
2021/09/05 22:45:50;;;;;;;28.33;18.27;;;;;;;14.15;77.05;102331.84;10148516;28;20039;-69
2021/09/05 22:50:47;;;;;;;30.75;18.27;;;;;;;14.11;77.33;102331.66;10144022;28;20046;-67
2021/09/05 22:55:43;;;;;;;29.20;18.33;;;;;;;14.08;77.41;102333.06;10137169;28;20042;-71
2021/09/05 23:00:41;;;;;;;29.35;18.55;;;;;;;14.06;77.23;102339.97;10142806;28;20078;-69
2021/09/05 23:05:38;;;;;;;26.88;17.63;;;;;;;14.03;77.51;102335.09;10142492;28;20043;-69
2021/09/05 23:10:35;;;;;;;26.17;19.25;;;;;;;13.98;77.59;102344.25;10147447;28;20550;-69
2021/09/05 23:15:32;;;;;;;29.67;19.77;;;;;;;13.94;77.70;102351.44;10148331;28;20100;-68
2021/09/05 23:20:29;;;;;;;27.23;18.08;;;;;;;13.92;77.85;102350.94;10148445;28;20574;-69
2021/09/05 23:25:25;;;;;;;29.75;18.88;;;;;;;13.84;78.32;102340.63;10142459;28;20054;-68
2021/09/05 23:30:22;;;;;;;30.73;18.85;;;;;;;13.81;78.25;102344.00;10145028;28;20058;-69
2021/09/05 23:35:19;;;;;;;28.45;17.92;;;;;;;13.78;78.19;102339.06;10144790;28;20085;-71